createdAt,value
2018-09-25T00:00:01.490Z,22.20
2018-09-25T00:02:35.000Z,22.20
2018-09-25T00:05:09.322Z,22.20
2018-09-25T00:07:42.880Z,22.20
2018-09-25T00:10:16.626Z,22.20
2018-09-25T00:12:50.276Z,22.10
2018-09-25T00:15:27.715Z,22.20
2018-09-25T00:18:01.412Z,22.20
2018-09-25T00:20:36.022Z,22.20
2018-09-25T00:23:09.712Z,22.10
2018-09-25T00:25:43.461Z,22.10
2018-09-25T00:28:17.070Z,22.20
2018-09-25T00:30:51.376Z,22.20
2018-09-25T00:33:25.168Z,22.10
2018-09-25T00:35:59.387Z,22.10
2018-09-25T00:38:33.078Z,22.10
2018-09-25T00:41:06.907Z,22.10
2018-09-25T00:43:40.575Z,22.10
2018-09-25T00:46:14.354Z,22.10
2018-09-25T00:48:48.003Z,22.10
2018-09-25T00:51:22.335Z,22.10
2018-09-25T00:53:55.859Z,22.10
2018-09-25T00:56:29.511Z,22.10
2018-09-25T00:59:03.168Z,22.10
2018-09-25T01:01:37.042Z,22.10
2018-09-25T01:04:10.766Z,22.10
2018-09-25T01:06:44.867Z,22.10
2018-09-25T01:09:18.569Z,22.10
2018-09-25T01:11:52.475Z,22.10
2018-09-25T01:14:26.151Z,22.10
2018-09-25T01:17:03.454Z,22.00
2018-09-25T01:19:37.154Z,22.10
2018-09-25T01:22:11.390Z,22.00
2018-09-25T01:24:44.954Z,22.00
2018-09-25T01:27:19.101Z,22.10
2018-09-25T01:29:52.778Z,22.00
2018-09-25T01:32:27.139Z,22.00
2018-09-25T01:35:00.798Z,22.00
2018-09-25T01:37:35.263Z,22.00
2018-09-25T01:40:08.766Z,22.00
2018-09-25T01:42:42.395Z,22.00
2018-09-25T01:45:16.128Z,22.00
2018-09-25T01:47:50.167Z,22.00
2018-09-25T01:50:23.879Z,22.00
2018-09-25T01:52:57.815Z,22.00
2018-09-25T01:55:31.336Z,22.00
2018-09-25T01:58:05.295Z,22.00
2018-09-25T02:00:38.963Z,22.00
2018-09-25T02:03:12.905Z,22.00
2018-09-25T02:05:53.197Z,22.00
2018-09-25T02:08:27.206Z,22.00
2018-09-25T02:11:00.932Z,22.00
2018-09-25T02:13:35.115Z,22.00
2018-09-25T02:16:08.793Z,22.00
2018-09-25T02:18:42.814Z,22.00
2018-09-25T02:21:16.327Z,22.00
2018-09-25T02:23:50.423Z,22.00
2018-09-25T02:26:23.975Z,22.00
2018-09-25T02:28:58.139Z,22.00
2018-09-25T02:31:31.722Z,22.00
2018-09-25T02:34:05.436Z,21.90
2018-09-25T02:36:39.118Z,21.90
2018-09-25T02:39:14.947Z,22.00
2018-09-25T02:41:48.627Z,22.00
2018-09-25T02:44:22.369Z,22.00
2018-09-25T02:46:55.994Z,22.00
2018-09-25T02:49:30.057Z,22.00
2018-09-25T02:52:03.798Z,22.00
2018-09-25T02:54:37.642Z,21.90
2018-09-25T02:57:11.415Z,21.90
2018-09-25T02:59:45.561Z,21.90
2018-09-25T03:02:19.169Z,21.90
2018-09-25T03:04:53.155Z,21.90
2018-09-25T03:07:30.445Z,21.90
2018-09-25T03:10:04.474Z,21.90
2018-09-25T03:12:38.067Z,21.90
2018-09-25T03:15:12.347Z,21.90
2018-09-25T03:17:45.963Z,21.90
2018-09-25T03:20:19.978Z,21.90
2018-09-25T03:22:53.679Z,21.90
2018-09-25T03:25:28.234Z,21.90
2018-09-25T03:28:01.782Z,21.90
2018-09-25T03:30:35.558Z,21.90
2018-09-25T03:33:09.211Z,21.90
2018-09-25T03:35:43.554Z,21.90
2018-09-25T03:38:17.229Z,21.90
2018-09-25T03:40:51.999Z,21.90
2018-09-25T03:43:25.562Z,21.90
2018-09-25T03:45:59.603Z,21.80
2018-09-25T03:48:33.138Z,21.90
2018-09-25T03:51:07.209Z,21.90
2018-09-25T03:53:40.844Z,21.90
2018-09-25T03:56:15.279Z,21.80
2018-09-25T03:58:48.932Z,21.90
2018-09-25T04:01:22.858Z,21.80
2018-09-25T04:03:56.514Z,21.80
2018-09-25T04:06:30.566Z,21.80
2018-09-25T04:09:06.879Z,21.80
2018-09-25T04:11:41.257Z,21.80
2018-09-25T04:14:14.834Z,21.80
2018-09-25T04:16:48.671Z,21.80
2018-09-25T04:19:22.418Z,21.80
2018-09-25T04:21:56.474Z,21.80
2018-09-25T04:24:30.118Z,21.80
2018-09-25T04:27:04.497Z,21.80
2018-09-25T04:29:38.081Z,21.80
2018-09-25T04:32:12.224Z,21.80
2018-09-25T04:34:46.026Z,21.80
2018-09-25T04:37:20.144Z,21.80
2018-09-25T04:39:53.634Z,21.80
2018-09-25T04:42:27.546Z,21.80
2018-09-25T04:45:01.090Z,21.80
2018-09-25T04:47:35.154Z,21.80
2018-09-25T04:50:08.940Z,21.80
2018-09-25T04:52:43.361Z,21.80
2018-09-25T04:55:16.922Z,21.80
2018-09-25T04:57:52.951Z,21.80
2018-09-25T05:00:26.790Z,21.80
2018-09-25T05:03:00.408Z,21.80
2018-09-25T05:05:35.844Z,21.70
2018-09-25T05:08:10.129Z,21.80
2018-09-25T05:10:43.978Z,21.80
2018-09-25T05:13:17.729Z,21.70
2018-09-25T05:15:51.402Z,21.70
2018-09-25T05:18:25.231Z,21.70
2018-09-25T05:20:58.828Z,21.70
2018-09-25T05:23:32.913Z,21.70
2018-09-25T05:26:06.637Z,21.70
2018-09-25T05:28:40.774Z,21.70
2018-09-25T05:31:14.347Z,21.70
2018-09-25T05:33:48.278Z,21.70
2018-09-25T05:36:21.748Z,21.70
2018-09-25T05:38:56.626Z,21.70
2018-09-25T05:41:30.386Z,21.70
2018-09-25T05:44:04.191Z,21.70
2018-09-25T05:46:37.729Z,21.60
2018-09-25T05:49:11.564Z,21.60
2018-09-25T05:51:45.244Z,21.60
2018-09-25T05:54:20.167Z,21.60
2018-09-25T05:56:53.790Z,21.60
2018-09-25T05:59:27.959Z,21.60
2018-09-25T06:02:01.651Z,21.60
2018-09-25T06:04:35.415Z,21.60
2018-09-25T06:07:09.043Z,21.60
2018-09-25T06:09:43.598Z,21.60
2018-09-25T06:12:17.322Z,21.60
2018-09-25T06:14:51.154Z,21.60
2018-09-25T06:17:24.855Z,21.60
2018-09-25T06:19:58.749Z,21.60
2018-09-25T06:22:32.506Z,21.60
2018-09-25T06:25:07.095Z,21.60
2018-09-25T06:27:40.835Z,21.60
2018-09-25T06:30:14.526Z,21.60
2018-09-25T06:32:48.142Z,21.60
2018-09-25T06:35:22.307Z,21.60
2018-09-25T06:37:56.045Z,21.60
2018-09-25T06:40:30.844Z,21.60
2018-09-25T06:43:04.623Z,21.60
2018-09-25T06:45:38.466Z,21.60
2018-09-25T06:48:12.026Z,21.60
2018-09-25T06:50:46.946Z,21.60
2018-09-25T06:53:20.653Z,21.60
2018-09-25T06:55:54.802Z,21.60
2018-09-25T06:58:28.394Z,21.60
2018-09-25T07:01:02.376Z,21.60
2018-09-25T07:03:35.866Z,21.60
2018-09-25T07:06:11.038Z,21.60
2018-09-25T07:08:44.914Z,21.60
2018-09-25T07:11:22.573Z,21.60
2018-09-25T07:13:56.247Z,21.60
2018-09-25T07:16:30.071Z,21.60
2018-09-25T07:19:03.850Z,21.60
2018-09-25T07:21:38.206Z,21.60
2018-09-25T07:24:11.974Z,21.70
2018-09-25T07:26:46.926Z,21.70
2018-09-25T07:29:20.637Z,21.70
2018-09-25T07:31:54.846Z,21.70
2018-09-25T07:34:28.533Z,21.70
2018-09-25T07:37:02.355Z,21.70
2018-09-25T07:39:36.019Z,21.70
2018-09-25T07:42:11.151Z,21.70
2018-09-25T07:44:44.691Z,21.70
2018-09-25T07:47:18.617Z,21.70
2018-09-25T07:49:52.411Z,21.70
2018-09-25T07:52:26.841Z,21.70
2018-09-25T07:55:00.522Z,21.70
2018-09-25T07:57:35.418Z,21.80
2018-09-25T08:00:09.073Z,21.80
2018-09-25T08:02:43.564Z,21.70
2018-09-25T08:05:18.739Z,21.80
2018-09-25T08:07:52.487Z,21.80
2018-09-25T08:10:26.214Z,21.80
2018-09-25T08:13:06.297Z,21.80
2018-09-25T08:15:39.915Z,21.80
2018-09-25T08:18:13.806Z,21.80
2018-09-25T08:20:47.322Z,21.80
2018-09-25T08:23:22.665Z,21.80
2018-09-25T08:25:56.269Z,21.80
2018-09-25T08:28:30.061Z,21.80
2018-09-25T08:31:03.812Z,21.90
2018-09-25T08:33:38.284Z,21.90
2018-09-25T08:36:12.039Z,21.80
2018-09-25T08:38:47.007Z,21.90
2018-09-25T08:41:20.609Z,21.90
2018-09-25T08:43:54.521Z,21.90
2018-09-25T08:46:28.343Z,21.90
2018-09-25T08:49:02.571Z,21.90
2018-09-25T08:51:36.142Z,21.90
2018-09-25T08:54:10.482Z,21.90
2018-09-25T08:56:44.143Z,21.90
2018-09-25T08:59:18.099Z,21.90
2018-09-25T09:01:51.887Z,21.90
2018-09-25T09:04:25.498Z,21.80
2018-09-25T09:06:59.172Z,21.80
2018-09-25T09:09:33.939Z,21.90
2018-09-25T09:12:07.721Z,21.80
2018-09-25T09:14:42.259Z,21.80
2018-09-25T09:17:15.954Z,21.80
2018-09-25T09:19:49.753Z,21.80
2018-09-25T09:22:23.414Z,21.80
2018-09-25T09:24:58.421Z,21.90
2018-09-25T09:27:32.121Z,21.80
2018-09-25T09:30:05.936Z,21.90
2018-09-25T09:32:39.670Z,21.80
2018-09-25T09:35:13.436Z,21.90
2018-09-25T09:37:47.106Z,21.80
2018-09-25T09:40:21.529Z,21.80
2018-09-25T09:42:55.131Z,21.90
2018-09-25T09:45:28.831Z,21.90
2018-09-25T09:48:02.307Z,21.90
2018-09-25T09:50:35.995Z,21.90
2018-09-25T09:53:09.750Z,21.90
2018-09-25T09:55:44.391Z,21.90
2018-09-25T09:58:18.067Z,21.90
2018-09-25T10:00:51.743Z,21.90
2018-09-25T10:03:25.372Z,21.90
2018-09-25T10:05:59.069Z,22.00
2018-09-25T10:08:32.770Z,21.90
2018-09-25T10:11:07.946Z,21.90
2018-09-25T10:13:41.602Z,22.00
2018-09-25T10:16:17.005Z,22.10
2018-09-25T10:18:50.564Z,22.00
2018-09-25T10:21:24.819Z,22.00
2018-09-25T10:23:58.546Z,22.00
2018-09-25T10:26:33.150Z,22.00
2018-09-25T10:29:06.867Z,21.90
2018-09-25T10:31:40.970Z,21.90
2018-09-25T10:34:14.768Z,21.90
2018-09-25T10:36:48.874Z,22.00
2018-09-25T10:39:22.578Z,21.90
2018-09-25T10:41:57.082Z,21.90
2018-09-25T10:44:30.786Z,21.90
2018-09-25T10:47:04.841Z,21.90
2018-09-25T10:49:38.497Z,21.90
2018-09-25T10:52:12.846Z,21.90
2018-09-25T10:54:46.582Z,21.90
2018-09-25T10:57:22.206Z,21.80
2018-09-25T10:59:55.826Z,21.70
2018-09-25T11:02:30.130Z,21.70
2018-09-25T11:05:08.734Z,21.70
2018-09-25T11:07:42.871Z,21.70
2018-09-25T11:10:16.648Z,21.60
2018-09-25T11:12:50.574Z,21.70
2018-09-25T11:15:24.346Z,21.70
2018-09-25T11:17:59.179Z,21.70
2018-09-25T11:20:32.952Z,21.70
2018-09-25T11:23:07.439Z,21.70
2018-09-25T11:25:41.034Z,21.70
2018-09-25T11:28:14.757Z,21.70
2018-09-25T11:30:48.315Z,21.70
2018-09-25T11:33:22.063Z,21.80
2018-09-25T11:35:55.819Z,21.80
2018-09-25T11:38:30.561Z,21.80
2018-09-25T11:41:04.403Z,21.80
2018-09-25T11:43:38.649Z,21.80
2018-09-25T11:46:12.671Z,21.80
2018-09-25T11:48:46.949Z,21.80
2018-09-25T11:51:20.650Z,21.80
2018-09-25T11:53:55.382Z,21.80
2018-09-25T11:56:29.087Z,21.80
2018-09-25T11:59:03.087Z,21.90
2018-09-25T12:01:36.763Z,21.80
2018-09-25T12:04:11.027Z,21.80
2018-09-25T12:06:44.590Z,21.80
2018-09-25T12:09:18.620Z,21.80
2018-09-25T12:11:52.289Z,21.80
2018-09-25T12:14:27.355Z,21.80
2018-09-25T12:17:01.130Z,21.90
2018-09-25T12:19:41.323Z,21.90
2018-09-25T12:22:15.129Z,21.90
2018-09-25T12:24:50.287Z,21.90
2018-09-25T12:27:23.958Z,21.90
2018-09-25T12:29:58.086Z,21.90
2018-09-25T12:32:31.651Z,21.90
2018-09-25T12:35:05.899Z,21.90
2018-09-25T12:37:39.661Z,21.90
2018-09-25T12:40:14.738Z,21.90
2018-09-25T12:42:48.439Z,21.90
2018-09-25T12:45:22.558Z,21.90
2018-09-25T12:47:56.347Z,21.90
2018-09-25T12:50:30.383Z,21.90
2018-09-25T12:53:03.979Z,21.90
2018-09-25T12:55:38.701Z,21.90
2018-09-25T12:58:12.445Z,21.90
2018-09-25T13:00:46.322Z,21.90
2018-09-25T13:03:19.879Z,21.90
2018-09-25T13:05:53.755Z,21.90
2018-09-25T13:08:27.336Z,21.90
2018-09-25T13:11:01.911Z,21.90
2018-09-25T13:13:35.614Z,21.90
2018-09-25T13:16:09.769Z,22.00
2018-09-25T13:18:45.418Z,21.90
2018-09-25T13:21:18.917Z,21.90
2018-09-25T13:23:52.679Z,21.90
2018-09-25T13:26:27.358Z,21.90
2018-09-25T13:29:01.028Z,21.90
2018-09-25T13:31:35.172Z,22.00
2018-09-25T13:34:08.949Z,21.90
2018-09-25T13:36:42.991Z,22.00
2018-09-25T13:39:16.757Z,21.90
2018-09-25T13:41:51.632Z,21.90
2018-09-25T13:44:25.210Z,22.00
2018-09-25T13:46:59.546Z,22.00
2018-09-25T13:49:33.292Z,21.90
2018-09-25T13:52:07.742Z,21.90
2018-09-25T13:54:41.598Z,22.00
2018-09-25T13:57:17.655Z,21.90
2018-09-25T13:59:51.342Z,21.90
2018-09-25T14:02:25.163Z,21.90
2018-09-25T14:05:00.699Z,22.00
2018-09-25T14:07:36.145Z,22.00
2018-09-25T14:10:09.699Z,21.90
2018-09-25T14:12:43.981Z,21.90
2018-09-25T14:15:17.869Z,21.90
2018-09-25T14:17:51.779Z,21.90
2018-09-25T14:20:27.255Z,21.90
2018-09-25T14:23:01.554Z,21.90
2018-09-25T14:25:35.001Z,21.90
2018-09-25T14:28:08.951Z,21.90
2018-09-25T14:30:42.556Z,21.90
2018-09-25T14:33:16.783Z,21.90
2018-09-25T14:35:50.272Z,21.90
2018-09-25T14:38:24.731Z,21.90
2018-09-25T14:40:58.418Z,21.90
2018-09-25T14:43:32.396Z,21.90
2018-09-25T14:46:06.052Z,21.90
2018-09-25T14:48:40.078Z,21.90
2018-09-25T14:51:13.814Z,21.90
2018-09-25T14:53:47.686Z,21.90
2018-09-25T14:56:21.419Z,21.90
2018-09-25T14:58:55.238Z,21.90
2018-09-25T15:01:29.002Z,21.90
2018-09-25T15:04:02.954Z,21.80
2018-09-25T15:06:36.761Z,21.90
2018-09-25T15:09:13.765Z,21.90
2018-09-25T15:11:47.630Z,21.90
2018-09-25T15:14:21.579Z,21.80
2018-09-25T15:16:55.266Z,21.80
2018-09-25T15:19:29.288Z,21.80
2018-09-25T15:22:03.875Z,21.80
2018-09-25T15:24:38.022Z,21.80
2018-09-25T15:27:11.695Z,21.80
2018-09-25T15:29:45.551Z,21.80
2018-09-25T15:32:19.210Z,21.80
2018-09-25T15:34:53.034Z,21.80
2018-09-25T15:37:26.799Z,21.80
2018-09-25T15:40:00.859Z,21.80
2018-09-25T15:42:34.584Z,21.80
2018-09-25T15:45:08.774Z,21.80
2018-09-25T15:47:43.553Z,21.80
2018-09-25T15:50:17.314Z,21.80
2018-09-25T15:52:50.951Z,21.80
2018-09-25T15:55:25.743Z,21.80
2018-09-25T15:57:59.509Z,21.80
2018-09-25T16:00:33.480Z,21.80
2018-09-25T16:03:06.981Z,21.80
2018-09-25T16:05:41.186Z,21.80
2018-09-25T16:08:14.866Z,21.70
2018-09-25T16:10:49.405Z,21.70
2018-09-25T16:13:30.869Z,21.80
2018-09-25T16:16:04.702Z,21.80
2018-09-25T16:18:38.495Z,21.70
2018-09-25T16:21:12.202Z,21.70
2018-09-25T16:23:49.831Z,21.70
2018-09-25T16:26:23.833Z,21.70
2018-09-25T16:28:57.484Z,21.70
2018-09-25T16:31:31.947Z,21.70
2018-09-25T16:34:05.504Z,21.70
2018-09-25T16:36:39.251Z,21.70
2018-09-25T16:39:14.891Z,21.70
2018-09-25T16:41:50.140Z,21.60
2018-09-25T16:44:23.689Z,21.60
2018-09-25T16:46:57.747Z,21.60
2018-09-25T16:49:31.302Z,21.60
2018-09-25T16:52:05.117Z,21.60
2018-09-25T16:54:38.731Z,21.60
2018-09-25T16:57:13.288Z,21.60
2018-09-25T16:59:47.135Z,21.60
2018-09-25T17:02:21.758Z,21.60
2018-09-25T17:04:57.795Z,21.60
2018-09-25T17:07:31.709Z,21.60
2018-09-25T17:10:05.397Z,21.60
2018-09-25T17:12:39.100Z,21.60
2018-09-25T17:15:12.821Z,21.60
2018-09-25T17:17:46.590Z,21.60
2018-09-25T17:20:20.306Z,21.50
2018-09-25T17:22:55.016Z,21.60
2018-09-25T17:25:35.747Z,21.60
2018-09-25T17:28:09.753Z,21.60
2018-09-25T17:30:43.307Z,21.60
2018-09-25T17:33:17.343Z,21.50
2018-09-25T17:35:50.999Z,21.50
2018-09-25T17:38:25.663Z,21.50
2018-09-25T17:40:59.368Z,21.50
2018-09-25T17:43:33.681Z,21.50
2018-09-25T17:46:07.242Z,21.50
2018-09-25T17:48:41.494Z,21.50
2018-09-25T17:51:15.119Z,21.50
2018-09-25T17:53:49.750Z,21.50
2018-09-25T17:56:23.413Z,21.50
2018-09-25T17:58:57.456Z,21.50
2018-09-25T18:01:31.223Z,21.50
2018-09-25T18:04:05.803Z,21.50
2018-09-25T18:06:39.526Z,21.50
2018-09-25T18:09:14.614Z,21.50
2018-09-25T18:11:48.335Z,21.50
2018-09-25T18:14:22.219Z,21.60
2018-09-25T18:16:55.736Z,21.60
2018-09-25T18:19:29.746Z,21.60
2018-09-25T18:22:03.566Z,21.60
2018-09-25T18:24:39.608Z,21.60
2018-09-25T18:27:13.256Z,21.60
2018-09-25T18:29:47.235Z,21.70
2018-09-25T18:32:21.021Z,21.60
2018-09-25T18:34:55.462Z,21.60
2018-09-25T18:37:29.187Z,21.70
2018-09-25T18:40:04.831Z,21.70
2018-09-25T18:42:38.561Z,21.60
2018-09-25T18:45:16.508Z,21.60
2018-09-25T18:47:50.184Z,21.60
2018-09-25T18:50:24.289Z,21.60
2018-09-25T18:52:58.012Z,21.60
2018-09-25T18:55:32.863Z,21.60
2018-09-25T18:58:06.465Z,21.60
2018-09-25T19:00:40.482Z,21.60
2018-09-25T19:03:14.130Z,21.60
2018-09-25T19:05:48.322Z,21.60
2018-09-25T19:08:21.979Z,21.60
2018-09-25T19:10:56.727Z,21.60
2018-09-25T19:13:30.399Z,21.60
2018-09-25T19:16:04.270Z,21.60
2018-09-25T19:18:37.960Z,21.60
2018-09-25T19:21:12.458Z,21.60
2018-09-25T19:23:46.168Z,21.60
2018-09-25T19:26:22.318Z,21.60
2018-09-25T19:28:56.043Z,21.60
2018-09-25T19:31:29.838Z,21.60
2018-09-25T19:34:03.588Z,21.60
2018-09-25T19:36:37.453Z,21.60
2018-09-25T19:39:13.526Z,21.60
2018-09-25T19:41:48.049Z,21.60
2018-09-25T19:44:21.813Z,21.60
2018-09-25T19:46:55.875Z,21.60
2018-09-25T19:49:29.482Z,21.60
2018-09-25T19:52:03.603Z,21.70
2018-09-25T19:54:37.499Z,21.70
2018-09-25T19:57:12.096Z,21.70
2018-09-25T19:59:45.881Z,21.70
2018-09-25T20:02:19.626Z,21.80
2018-09-25T20:04:54.882Z,21.70
2018-09-25T20:07:28.651Z,21.80
2018-09-25T20:10:02.292Z,21.80
2018-09-25T20:12:36.674Z,21.80
2018-09-25T20:15:10.208Z,21.80
2018-09-25T20:17:44.714Z,21.80
2018-09-25T20:20:18.409Z,21.80
2018-09-25T20:22:53.030Z,21.80
2018-09-25T20:25:26.809Z,21.80
2018-09-25T20:28:05.899Z,21.80
2018-09-25T20:30:39.685Z,21.80
2018-09-25T20:33:13.858Z,21.80
2018-09-25T20:35:47.394Z,21.80
2018-09-25T20:38:21.915Z,21.80
2018-09-25T20:40:55.534Z,21.80
2018-09-25T20:43:29.913Z,21.80
2018-09-25T20:46:03.483Z,21.80
2018-09-25T20:48:37.442Z,21.80
2018-09-25T20:51:11.133Z,21.80
2018-09-25T20:53:45.367Z,21.80
2018-09-25T20:56:19.058Z,21.80
2018-09-25T20:58:53.078Z,21.80
2018-09-25T21:01:26.711Z,21.80
2018-09-25T21:04:00.583Z,21.80
2018-09-25T21:06:34.366Z,21.80
2018-09-25T21:09:08.850Z,21.80
2018-09-25T21:11:42.546Z,21.80
2018-09-25T21:14:16.534Z,21.80
2018-09-25T21:16:49.966Z,21.80
2018-09-25T21:19:23.939Z,21.80
2018-09-25T21:21:57.595Z,21.70
2018-09-25T21:24:32.058Z,21.70
2018-09-25T21:27:05.799Z,21.70
2018-09-25T21:29:40.977Z,21.70
2018-09-25T21:32:14.677Z,21.70
2018-09-25T21:34:48.395Z,21.70
2018-09-25T21:37:22.011Z,21.70
2018-09-25T21:39:56.496Z,21.70
2018-09-25T21:42:30.230Z,21.70
2018-09-25T21:45:04.040Z,21.70
2018-09-25T21:47:37.598Z,21.70
2018-09-25T21:50:11.394Z,21.70
2018-09-25T21:52:45.118Z,21.70
2018-09-25T21:55:19.091Z,21.70
2018-09-25T21:57:52.767Z,21.70
2018-09-25T22:00:26.783Z,21.60
2018-09-25T22:03:00.674Z,21.60
2018-09-25T22:05:34.711Z,21.70
2018-09-25T22:08:08.312Z,21.60
2018-09-25T22:10:42.838Z,21.70
2018-09-25T22:13:16.433Z,21.60
2018-09-25T22:15:50.546Z,21.60
2018-09-25T22:18:24.314Z,21.60
2018-09-25T22:20:58.259Z,21.60
2018-09-25T22:23:31.928Z,21.60
2018-09-25T22:26:06.590Z,21.60
2018-09-25T22:28:40.380Z,21.60
2018-09-25T22:31:20.867Z,21.60
2018-09-25T22:33:54.558Z,21.60
2018-09-25T22:36:28.579Z,21.60
2018-09-25T22:39:02.266Z,21.60
2018-09-25T22:41:36.592Z,21.60
2018-09-25T22:44:10.282Z,21.60
2018-09-25T22:46:44.010Z,21.60
2018-09-25T22:49:17.792Z,21.60
2018-09-25T22:51:51.817Z,21.50
2018-09-25T22:54:25.586Z,21.60
2018-09-25T22:56:59.990Z,21.50
2018-09-25T22:59:33.718Z,21.50
2018-09-25T23:02:07.440Z,21.60
2018-09-25T23:04:42.967Z,21.50
2018-09-25T23:07:16.686Z,21.50
2018-09-25T23:09:50.403Z,21.50
2018-09-25T23:12:24.133Z,21.50
2018-09-25T23:14:57.786Z,21.50
2018-09-25T23:17:31.735Z,21.50
2018-09-25T23:20:05.654Z,21.50
2018-09-25T23:22:39.802Z,21.50
2018-09-25T23:25:13.520Z,21.50
2018-09-25T23:27:47.675Z,21.50
2018-09-25T23:30:21.213Z,21.50
2018-09-25T23:33:03.142Z,21.50
2018-09-25T23:35:36.789Z,21.50
2018-09-25T23:38:11.717Z,21.50
2018-09-25T23:40:44.551Z,21.50
2018-09-25T23:43:19.017Z,21.50
2018-09-25T23:45:55.517Z,21.50
2018-09-25T23:48:55.709Z,21.50
2018-09-25T23:52:28.153Z,21.40
2018-09-25T23:55:08.794Z,21.50
2018-09-25T23:57:41.590Z,21.50
